createdAt,value
2023-10-31T00:01:15.969Z,16.70
2023-10-31T00:03:20.057Z,17.20
2023-10-31T00:05:21.982Z,16.80
2023-10-31T00:07:24.614Z,17.20
2023-10-31T00:09:26.022Z,16.80
2023-10-31T00:11:28.218Z,17.20
2023-10-31T00:13:30.040Z,16.80
2023-10-31T00:15:31.996Z,17.20
2023-10-31T00:17:34.557Z,16.70
2023-10-31T00:19:35.560Z,17.20
2023-10-31T00:21:38.189Z,16.80
2023-10-31T00:23:49.464Z,17.20
2023-10-31T00:25:41.792Z,16.70
2023-10-31T00:27:52.972Z,17.30
2023-10-31T00:29:45.343Z,16.70
2023-10-31T00:31:57.361Z,17.30
2023-10-31T00:33:49.113Z,16.70
2023-10-31T00:36:00.903Z,17.30
2023-10-31T00:37:52.811Z,16.70
2023-10-31T00:40:04.712Z,17.30
2023-10-31T00:41:56.665Z,16.70
2023-10-31T00:44:08.341Z,17.40
2023-10-31T00:46:00.336Z,16.70
2023-10-31T00:48:12.754Z,17.40
2023-10-31T00:50:04.054Z,16.70
2023-10-31T00:52:16.563Z,17.40
2023-10-31T00:54:07.649Z,16.60
2023-10-31T00:56:20.136Z,17.30
2023-10-31T00:58:11.160Z,16.60
2023-10-31T01:00:23.767Z,17.40
2023-10-31T01:02:14.906Z,16.60
2023-10-31T01:04:27.471Z,17.30
2023-10-31T01:06:18.582Z,16.60
2023-10-31T01:08:31.437Z,17.30
2023-10-31T01:10:23.326Z,16.60
2023-10-31T01:12:35.506Z,17.30
2023-10-31T01:14:27.586Z,16.60
2023-10-31T01:16:39.144Z,17.20
2023-10-31T01:18:32.140Z,16.60
2023-10-31T01:20:42.657Z,17.20
2023-10-31T01:22:36.055Z,16.60
2023-10-31T01:24:48.271Z,17.20
2023-10-31T01:26:39.881Z,16.70
2023-10-31T01:28:52.894Z,17.20
2023-10-31T01:30:43.534Z,16.70
2023-10-31T01:32:56.549Z,17.20
2023-10-31T01:34:47.123Z,16.70
2023-10-31T01:37:00.102Z,17.30
2023-10-31T01:38:50.714Z,16.60
2023-10-31T01:41:04.701Z,17.20
2023-10-31T01:42:54.378Z,16.60
2023-10-31T01:45:09.111Z,17.20
2023-10-31T01:46:59.038Z,16.70
2023-10-31T01:49:12.694Z,17.30
2023-10-31T01:51:04.628Z,16.60
2023-10-31T01:53:16.324Z,17.30
2023-10-31T01:55:08.561Z,16.60
2023-10-31T01:57:22.500Z,17.30
2023-10-31T01:59:12.388Z,16.60
2023-10-31T02:01:27.101Z,17.30
2023-10-31T02:03:16.692Z,16.60
2023-10-31T02:05:33.641Z,17.30
2023-10-31T02:07:20.322Z,16.50
2023-10-31T02:09:37.025Z,17.30
2023-10-31T02:11:24.149Z,16.50
2023-10-31T02:13:41.207Z,17.40
2023-10-31T02:15:27.795Z,16.50
2023-10-31T02:17:44.828Z,17.30
2023-10-31T02:19:31.366Z,16.50
2023-10-31T02:21:48.567Z,17.40
2023-10-31T02:23:35.018Z,16.50
2023-10-31T02:25:52.098Z,17.40
2023-10-31T02:27:38.863Z,16.50
2023-10-31T02:29:55.811Z,17.30
2023-10-31T02:31:42.432Z,16.50
2023-10-31T02:34:00.217Z,17.20
2023-10-31T02:35:46.216Z,16.50
2023-10-31T02:38:03.903Z,17.20
2023-10-31T02:39:49.689Z,16.50
2023-10-31T02:42:08.444Z,17.20
2023-10-31T02:43:57.389Z,16.50
2023-10-31T02:46:16.391Z,17.20
2023-10-31T02:48:00.972Z,16.50
2023-10-31T02:50:20.131Z,17.20
2023-10-31T02:52:04.768Z,16.40
2023-10-31T02:54:23.734Z,17.20
2023-10-31T02:56:08.596Z,16.40
2023-10-31T02:58:27.239Z,17.20
2023-10-31T03:00:12.476Z,16.40
2023-10-31T03:02:31.681Z,17.30
2023-10-31T03:04:16.323Z,16.40
2023-10-31T03:06:36.497Z,17.20
2023-10-31T03:08:22.379Z,16.40
2023-10-31T03:10:41.401Z,17.20
2023-10-31T03:12:29.014Z,16.40
2023-10-31T03:14:44.965Z,17.20
2023-10-31T03:16:34.713Z,16.40
2023-10-31T03:18:50.470Z,17.20
2023-10-31T03:20:40.007Z,16.40
2023-10-31T03:22:54.139Z,17.20
2023-10-31T03:24:43.990Z,16.40
2023-10-31T03:26:58.521Z,17.30
2023-10-31T03:28:48.935Z,16.40
2023-10-31T03:31:02.019Z,17.20
2023-10-31T03:32:53.146Z,16.40
2023-10-31T03:35:05.987Z,17.20
2023-10-31T03:36:58.397Z,16.50
2023-10-31T03:39:10.290Z,17.10
2023-10-31T03:41:02.854Z,16.50
2023-10-31T03:43:14.362Z,16.90
2023-10-31T03:45:08.829Z,16.40
2023-10-31T03:47:18.815Z,16.80
2023-10-31T03:49:12.844Z,16.30
2023-10-31T03:51:22.399Z,16.70
2023-10-31T03:53:19.650Z,16.30
2023-10-31T03:55:26.447Z,16.70
2023-10-31T03:57:24.370Z,16.20
2023-10-31T03:59:31.220Z,16.60
2023-10-31T04:01:28.327Z,16.10
2023-10-31T04:03:34.834Z,16.60
2023-10-31T04:05:38.900Z,16.00
2023-10-31T04:07:39.495Z,16.60
2023-10-31T04:09:43.585Z,16.00
2023-10-31T04:11:44.727Z,16.60
2023-10-31T04:13:47.731Z,16.00
2023-10-31T04:15:49.184Z,16.60
2023-10-31T04:17:51.786Z,16.00
2023-10-31T04:19:53.643Z,16.60
2023-10-31T04:21:56.272Z,16.00
2023-10-31T04:23:57.146Z,16.60
2023-10-31T04:26:00.447Z,16.10
2023-10-31T04:28:00.704Z,16.60
2023-10-31T04:30:04.675Z,16.10
2023-10-31T04:32:04.400Z,16.60
2023-10-31T04:34:09.085Z,16.20
2023-10-31T04:36:08.207Z,16.70
2023-10-31T04:38:16.572Z,16.10
2023-10-31T04:40:12.365Z,16.70
2023-10-31T04:42:23.024Z,16.10
2023-10-31T04:44:16.051Z,16.80
2023-10-31T04:46:30.129Z,16.10
2023-10-31T04:48:19.752Z,16.80
2023-10-31T04:50:34.185Z,16.00
2023-10-31T04:52:24.263Z,16.90
2023-10-31T04:54:38.234Z,15.90
2023-10-31T04:56:28.795Z,16.90
2023-10-31T04:58:44.164Z,15.80
2023-10-31T05:00:32.270Z,16.90
2023-10-31T05:02:48.292Z,15.60
2023-10-31T05:04:39.360Z,16.90
2023-10-31T05:06:52.396Z,15.40
2023-10-31T05:08:42.840Z,16.70
2023-10-31T05:10:56.673Z,15.30
2023-10-31T05:12:46.932Z,16.20
2023-10-31T05:15:00.709Z,15.10
2023-10-31T05:16:50.537Z,16.00
2023-10-31T05:19:06.564Z,14.90
2023-10-31T05:20:54.184Z,15.80
2023-10-31T05:23:10.592Z,14.80
2023-10-31T05:24:57.748Z,15.70
2023-10-31T05:27:14.729Z,14.60
2023-10-31T05:29:02.362Z,15.50
2023-10-31T05:31:19.527Z,14.60
2023-10-31T05:33:05.986Z,15.40
2023-10-31T05:35:23.925Z,14.60
2023-10-31T05:37:09.614Z,15.30
2023-10-31T05:39:28.853Z,14.60
2023-10-31T05:41:13.217Z,15.10
2023-10-31T05:43:34.260Z,14.50
2023-10-31T05:45:16.972Z,15.00
2023-10-31T05:47:42.866Z,14.50
2023-10-31T05:49:20.850Z,14.90
2023-10-31T05:51:47.382Z,14.60
2023-10-31T05:53:24.397Z,14.80
2023-10-31T05:55:51.528Z,14.60
2023-10-31T05:57:27.996Z,14.70
2023-10-31T05:59:55.609Z,14.60
2023-10-31T06:01:31.600Z,14.80
2023-10-31T06:04:00.538Z,14.60
2023-10-31T06:05:35.122Z,14.80
2023-10-31T06:08:04.865Z,14.60
2023-10-31T06:09:38.789Z,14.80
2023-10-31T06:12:09.171Z,14.70
2023-10-31T06:13:42.474Z,14.80
2023-10-31T06:16:13.899Z,14.70
2023-10-31T06:17:46.090Z,14.90
2023-10-31T06:20:18.445Z,14.70
2023-10-31T06:21:49.834Z,14.90
2023-10-31T06:24:22.880Z,14.60
2023-10-31T06:25:53.489Z,14.90
2023-10-31T06:28:27.025Z,14.60
2023-10-31T06:30:11.105Z,15.00
2023-10-31T06:32:30.960Z,14.60
2023-10-31T06:34:20.728Z,15.10
2023-10-31T06:36:34.960Z,14.50
2023-10-31T06:38:24.309Z,15.10
2023-10-31T06:40:39.097Z,14.60
2023-10-31T06:42:28.248Z,15.10
2023-10-31T06:44:44.060Z,14.60
2023-10-31T06:46:33.284Z,15.20
2023-10-31T06:48:48.148Z,14.60
2023-10-31T06:50:36.919Z,15.20
2023-10-31T06:52:52.176Z,14.60
2023-10-31T06:54:40.593Z,15.20
2023-10-31T06:56:56.118Z,14.60
2023-10-31T06:58:44.402Z,15.20
2023-10-31T07:01:02.465Z,14.70
2023-10-31T07:02:49.081Z,15.20
2023-10-31T07:05:06.928Z,14.70
2023-10-31T07:06:58.453Z,15.30
2023-10-31T07:09:11.370Z,14.70
2023-10-31T07:11:02.453Z,15.20
2023-10-31T07:13:15.244Z,14.40
2023-10-31T07:15:07.604Z,15.40
2023-10-31T07:17:19.213Z,14.20
2023-10-31T07:19:11.877Z,15.70
2023-10-31T07:21:24.120Z,14.10
2023-10-31T07:23:17.942Z,15.80
2023-10-31T07:25:28.175Z,14.00
2023-10-31T07:27:21.427Z,16.30
2023-10-31T07:29:32.185Z,14.00
2023-10-31T07:31:26.590Z,17.20
2023-10-31T07:33:37.105Z,14.10
2023-10-31T07:35:30.109Z,18.10
2023-10-31T07:37:41.845Z,14.20
2023-10-31T07:39:33.708Z,18.80
2023-10-31T07:41:46.911Z,14.20
2023-10-31T07:43:38.882Z,19.30
2023-10-31T07:45:50.924Z,14.20
2023-10-31T07:47:42.912Z,19.60
2023-10-31T07:49:55.461Z,14.20
2023-10-31T07:51:49.171Z,20.10
2023-10-31T07:54:01.851Z,14.20
2023-10-31T07:55:53.542Z,20.70
2023-10-31T07:58:05.899Z,14.20
2023-10-31T07:59:57.252Z,21.10
2023-10-31T08:02:10.249Z,14.30
2023-10-31T08:04:01.363Z,21.60
2023-10-31T08:06:14.609Z,14.30
2023-10-31T08:08:08.155Z,21.90
2023-10-31T08:10:18.731Z,14.40
2023-10-31T08:12:11.765Z,22.10
2023-10-31T08:14:29.607Z,14.40
2023-10-31T08:16:22.407Z,22.10
2023-10-31T08:18:33.766Z,14.50
2023-10-31T08:20:26.214Z,22.10
2023-10-31T08:22:39.273Z,14.60
2023-10-31T08:24:29.859Z,22.10
2023-10-31T08:26:43.427Z,14.70
2023-10-31T08:28:33.424Z,22.20
2023-10-31T08:30:48.577Z,14.80
2023-10-31T08:32:36.972Z,22.50
2023-10-31T08:34:53.597Z,14.80
2023-10-31T08:36:41.383Z,22.60
2023-10-31T08:38:59.023Z,14.90
2023-10-31T08:40:44.873Z,22.40
2023-10-31T08:43:05.889Z,15.00
2023-10-31T08:44:48.437Z,22.20
2023-10-31T08:47:10.123Z,15.10
2023-10-31T08:48:52.013Z,22.30
2023-10-31T08:51:14.662Z,15.30
2023-10-31T08:52:55.595Z,22.40
2023-10-31T08:55:18.927Z,15.50
2023-10-31T08:56:59.057Z,22.60
2023-10-31T08:59:23.084Z,15.80
2023-10-31T09:01:02.729Z,22.60
2023-10-31T09:03:29.275Z,16.10
2023-10-31T09:05:07.859Z,22.70
2023-10-31T09:07:36.809Z,16.40
2023-10-31T09:09:11.805Z,23.10
2023-10-31T09:11:41.016Z,16.80
2023-10-31T09:13:15.823Z,23.40
2023-10-31T09:15:46.795Z,17.20
2023-10-31T09:17:20.085Z,23.30
2023-10-31T09:19:53.160Z,17.70
2023-10-31T09:21:23.711Z,22.70
2023-10-31T09:23:58.412Z,18.10
2023-10-31T09:25:31.699Z,22.20
2023-10-31T09:28:07.316Z,18.40
2023-10-31T09:29:35.401Z,21.50
2023-10-31T09:32:11.367Z,18.60
2023-10-31T09:33:38.924Z,21.10
2023-10-31T09:36:17.904Z,18.70
2023-10-31T09:37:44.009Z,21.00
2023-10-31T09:40:22.422Z,18.70
2023-10-31T09:41:50.519Z,21.10
2023-10-31T09:44:30.674Z,18.80
2023-10-31T09:45:55.777Z,21.10
2023-10-31T09:48:35.251Z,18.90
2023-10-31T09:50:00.831Z,20.80
2023-10-31T09:52:40.175Z,18.80
2023-10-31T09:54:05.182Z,20.50
2023-10-31T09:56:45.200Z,18.70
2023-10-31T09:58:08.751Z,20.30
2023-10-31T10:00:49.819Z,18.70
2023-10-31T10:02:12.589Z,20.20
2023-10-31T10:04:55.427Z,18.80
2023-10-31T10:06:16.308Z,20.60
2023-10-31T10:08:59.841Z,19.00
2023-10-31T10:10:19.936Z,20.50
2023-10-31T10:13:04.991Z,19.30
2023-10-31T10:14:29.904Z,20.20
2023-10-31T10:17:25.575Z,19.50
2023-10-31T10:18:41.871Z,19.90
2023-10-31T10:21:47.948Z,19.60
2023-10-31T10:22:46.766Z,19.60
2023-10-31T10:25:52.054Z,19.40
2023-10-31T10:26:53.262Z,19.50
2023-10-31T10:29:56.333Z,19.20
2023-10-31T10:30:59.510Z,19.30
2023-10-31T10:34:05.207Z,19.30
2023-10-31T10:35:03.675Z,19.10
2023-10-31T10:38:14.184Z,19.30
2023-10-31T10:39:08.700Z,19.00
2023-10-31T10:42:20.512Z,19.20
2023-10-31T10:43:25.855Z,18.90
2023-10-31T10:46:29.105Z,19.20
2023-10-31T10:47:30.286Z,18.80
2023-10-31T10:50:36.187Z,19.50
2023-10-31T10:52:00.161Z,18.80
2023-10-31T10:54:48.318Z,19.50
2023-10-31T10:56:10.576Z,18.80
2023-10-31T10:59:16.866Z,19.60
2023-10-31T11:00:14.876Z,18.90
2023-10-31T11:03:22.645Z,19.50
2023-10-31T11:04:19.461Z,18.90
2023-10-31T11:07:29.663Z,19.30
2023-10-31T11:08:26.670Z,19.80
2023-10-31T11:11:34.760Z,19.20
2023-10-31T11:12:33.962Z,21.10
2023-10-31T11:15:40.261Z,19.00
2023-10-31T11:16:52.941Z,22.10
2023-10-31T11:19:47.442Z,18.90
2023-10-31T11:20:56.695Z,23.00
2023-10-31T11:24:01.690Z,18.90
2023-10-31T11:25:01.853Z,23.70
2023-10-31T11:28:18.567Z,19.10
2023-10-31T11:29:08.628Z,24.50
2023-10-31T11:32:24.012Z,19.50
2023-10-31T11:33:16.418Z,24.60
2023-10-31T11:36:29.923Z,19.50
2023-10-31T11:37:35.612Z,23.90
2023-10-31T11:40:36.496Z,19.50
2023-10-31T11:41:39.875Z,23.20
2023-10-31T11:44:58.228Z,19.30
2023-10-31T11:45:49.481Z,22.60
2023-10-31T11:49:04.159Z,19.20
2023-10-31T11:49:53.263Z,22.30
2023-10-31T11:53:14.788Z,19.30
2023-10-31T11:53:58.831Z,22.20
2023-10-31T11:57:30.045Z,19.50
2023-10-31T11:58:19.246Z,22.20
2023-10-31T12:01:34.661Z,19.60
2023-10-31T12:02:22.773Z,22.10
2023-10-31T12:05:38.741Z,19.30
2023-10-31T12:06:26.351Z,21.50
2023-10-31T12:09:49.928Z,18.90
2023-10-31T12:10:34.164Z,21.00
2023-10-31T12:13:55.934Z,18.80
2023-10-31T12:14:38.396Z,20.70
2023-10-31T12:18:00.643Z,18.70
2023-10-31T12:18:42.640Z,20.90
2023-10-31T12:22:14.218Z,18.90
2023-10-31T12:22:46.153Z,21.70
2023-10-31T12:26:23.424Z,19.30
2023-10-31T12:26:50.142Z,22.20
2023-10-31T12:30:30.298Z,19.70
2023-10-31T12:30:59.590Z,22.70
2023-10-31T12:34:37.665Z,19.90
2023-10-31T12:35:04.366Z,23.10
2023-10-31T12:38:41.711Z,19.70
2023-10-31T12:39:10.975Z,23.40
2023-10-31T12:42:47.242Z,19.40
2023-10-31T12:43:14.912Z,23.70
2023-10-31T12:46:51.698Z,19.40
2023-10-31T12:47:24.410Z,24.10
2023-10-31T12:51:09.246Z,19.40
2023-10-31T12:51:28.559Z,24.20
2023-10-31T12:55:18.686Z,19.60
2023-10-31T12:55:39.788Z,24.10
2023-10-31T12:59:25.155Z,19.90
2023-10-31T12:59:43.311Z,24.10
2023-10-31T13:03:29.256Z,20.10
2023-10-31T13:03:53.645Z,24.10
2023-10-31T13:07:38.467Z,20.20
2023-10-31T13:08:02.178Z,23.90
2023-10-31T13:11:44.243Z,20.40
2023-10-31T13:12:07.512Z,23.30
2023-10-31T13:15:50.053Z,20.50
2023-10-31T13:16:11.462Z,22.60
2023-10-31T13:19:55.063Z,20.80
2023-10-31T13:20:16.501Z,21.80
2023-10-31T13:24:00.489Z,20.80
2023-10-31T13:24:21.004Z,21.30
2023-10-31T13:28:09.485Z,20.60
2023-10-31T13:28:24.477Z,21.10
2023-10-31T13:32:20.577Z,20.00
2023-10-31T13:32:28.247Z,21.10
2023-10-31T13:36:26.071Z,19.30
2023-10-31T13:36:31.886Z,21.20
2023-10-31T13:40:32.832Z,18.80
2023-10-31T13:40:35.484Z,21.90
2023-10-31T13:44:37.783Z,18.50
2023-10-31T13:44:39.863Z,22.70
2023-10-31T13:48:41.745Z,18.20
2023-10-31T13:48:44.746Z,23.20
2023-10-31T13:52:46.131Z,18.00
2023-10-31T13:52:51.125Z,23.20
2023-10-31T13:56:50.367Z,17.80
2023-10-31T13:56:55.985Z,22.60
2023-10-31T14:00:54.816Z,17.60
2023-10-31T14:00:59.693Z,22.10
2023-10-31T14:04:59.185Z,16.80
2023-10-31T14:05:04.273Z,21.60
2023-10-31T14:09:08.772Z,21.30
2023-10-31T14:09:14.763Z,16.00
2023-10-31T14:13:12.297Z,21.10
2023-10-31T14:13:22.178Z,15.70
2023-10-31T14:17:18.340Z,20.90
2023-10-31T14:17:28.069Z,15.50
2023-10-31T14:21:22.058Z,20.60
2023-10-31T14:21:32.981Z,15.50
2023-10-31T14:25:25.583Z,20.20
2023-10-31T14:25:37.651Z,15.30
2023-10-31T14:29:29.263Z,19.90
2023-10-31T14:29:45.147Z,15.00
2023-10-31T14:33:33.115Z,19.60
2023-10-31T14:33:55.264Z,14.90
2023-10-31T14:37:36.900Z,19.20
2023-10-31T14:38:00.015Z,14.70
2023-10-31T14:41:41.436Z,19.10
2023-10-31T14:42:05.400Z,14.50
2023-10-31T14:45:45.235Z,18.90
2023-10-31T14:46:10.960Z,14.50
2023-10-31T14:49:48.852Z,18.80
2023-10-31T14:50:15.080Z,14.50
2023-10-31T14:53:54.210Z,18.70
2023-10-31T14:54:22.228Z,14.70
2023-10-31T14:57:57.876Z,18.60
2023-10-31T14:58:26.287Z,14.80
2023-10-31T15:02:01.540Z,18.40
2023-10-31T15:02:30.496Z,14.80
2023-10-31T15:06:06.137Z,18.20
2023-10-31T15:06:38.888Z,14.90
2023-10-31T15:10:10.093Z,17.90
2023-10-31T15:10:43.222Z,15.00
2023-10-31T15:14:14.561Z,17.70
2023-10-31T15:14:48.797Z,14.90
2023-10-31T15:18:19.817Z,17.40
2023-10-31T15:18:52.874Z,14.80
2023-10-31T15:22:24.347Z,17.30
2023-10-31T15:22:57.955Z,14.70
2023-10-31T15:26:30.284Z,17.20
2023-10-31T15:27:02.006Z,14.70
2023-10-31T15:30:33.780Z,17.10
2023-10-31T15:31:07.158Z,14.60
2023-10-31T15:34:41.097Z,17.00
2023-10-31T15:35:11.700Z,14.50
2023-10-31T15:38:47.548Z,16.90
2023-10-31T15:39:17.818Z,14.60
2023-10-31T15:42:50.899Z,16.90
2023-10-31T15:43:21.912Z,14.80
2023-10-31T15:46:55.040Z,16.90
2023-10-31T15:47:27.338Z,15.00
2023-10-31T15:50:59.058Z,16.90
2023-10-31T15:51:31.506Z,15.20
2023-10-31T15:55:03.197Z,16.90
2023-10-31T15:55:36.917Z,15.20
2023-10-31T15:59:07.532Z,16.80
2023-10-31T15:59:40.952Z,15.30
2023-10-31T16:03:11.127Z,16.80
2023-10-31T16:03:48.408Z,15.40
2023-10-31T16:07:14.954Z,16.70
2023-10-31T16:07:57.153Z,15.40
2023-10-31T16:11:18.448Z,16.70
2023-10-31T16:12:01.523Z,15.40
2023-10-31T16:15:21.995Z,16.60
2023-10-31T16:16:06.006Z,15.30
2023-10-31T16:19:25.771Z,16.50
2023-10-31T16:20:10.864Z,15.20
2023-10-31T16:23:29.417Z,16.50
2023-10-31T16:24:15.169Z,15.10
2023-10-31T16:27:33.019Z,16.50
2023-10-31T16:28:19.350Z,15.10
2023-10-31T16:31:36.600Z,16.40
2023-10-31T16:32:24.839Z,15.00
2023-10-31T16:35:40.261Z,16.30
2023-10-31T16:36:28.942Z,15.00
2023-10-31T16:39:43.940Z,16.20
2023-10-31T16:40:32.995Z,15.00
2023-10-31T16:43:47.412Z,16.20
2023-10-31T16:44:39.676Z,15.00
2023-10-31T16:47:51.084Z,16.00
2023-10-31T16:48:47.482Z,15.00
2023-10-31T16:51:55.874Z,16.00
2023-10-31T16:52:51.807Z,15.00
2023-10-31T16:56:00.410Z,15.90
2023-10-31T16:57:04.568Z,15.00
2023-10-31T17:00:04.575Z,15.80
2023-10-31T17:01:09.880Z,14.90
2023-10-31T17:04:08.397Z,15.80
2023-10-31T17:05:14.825Z,15.00
2023-10-31T17:08:12.221Z,15.80
2023-10-31T17:09:19.425Z,14.90
2023-10-31T17:12:15.811Z,15.70
2023-10-31T17:13:30.636Z,14.90
2023-10-31T17:16:19.406Z,15.80
2023-10-31T17:17:35.002Z,14.90
2023-10-31T17:20:23.256Z,15.80
2023-10-31T17:21:40.543Z,14.90
2023-10-31T17:24:26.794Z,15.80
2023-10-31T17:25:47.284Z,14.90
2023-10-31T17:28:32.903Z,15.80
2023-10-31T17:29:51.528Z,14.90
2023-10-31T17:32:37.927Z,15.70
2023-10-31T17:34:00.231Z,14.90
2023-10-31T17:36:42.431Z,15.70
2023-10-31T17:38:06.548Z,14.80
2023-10-31T17:40:49.153Z,15.70
2023-10-31T17:42:10.608Z,14.60
2023-10-31T17:44:52.940Z,15.70
2023-10-31T17:46:15.186Z,14.40
2023-10-31T17:48:56.430Z,15.70
2023-10-31T17:50:19.460Z,14.10
2023-10-31T17:53:00.320Z,15.60
2023-10-31T17:54:26.290Z,14.00
2023-10-31T17:57:04.382Z,15.60
2023-10-31T17:58:32.723Z,13.80
2023-10-31T18:01:08.245Z,15.60
2023-10-31T18:02:37.079Z,13.80
2023-10-31T18:05:11.752Z,15.60
2023-10-31T18:06:42.966Z,14.00
2023-10-31T18:09:15.580Z,15.60
2023-10-31T18:10:47.041Z,14.00
2023-10-31T18:13:20.774Z,15.60
2023-10-31T18:14:51.665Z,14.10
2023-10-31T18:17:24.342Z,15.70
2023-10-31T18:18:56.105Z,13.90
2023-10-31T18:21:30.117Z,15.80
2023-10-31T18:23:01.082Z,13.70
2023-10-31T18:25:33.752Z,15.80
2023-10-31T18:27:05.624Z,13.60
2023-10-31T18:29:37.318Z,15.80
2023-10-31T18:31:09.628Z,13.60
2023-10-31T18:33:42.592Z,15.90
2023-10-31T18:35:13.610Z,13.60
2023-10-31T18:37:48.058Z,15.90
2023-10-31T18:39:19.660Z,13.70
2023-10-31T18:42:02.626Z,15.90
2023-10-31T18:43:23.939Z,13.80
2023-10-31T18:46:13.657Z,15.80
2023-10-31T18:47:28.272Z,13.80
2023-10-31T18:50:17.999Z,15.70
2023-10-31T18:51:33.014Z,13.70
2023-10-31T18:54:21.505Z,15.70
2023-10-31T18:55:37.320Z,13.50
2023-10-31T18:58:25.154Z,15.70
2023-10-31T18:59:42.767Z,13.20
2023-10-31T19:02:28.933Z,15.70
2023-10-31T19:03:48.904Z,13.10
2023-10-31T19:06:33.171Z,15.70
2023-10-31T19:07:53.238Z,13.10
2023-10-31T19:10:37.716Z,15.70
2023-10-31T19:11:57.158Z,13.10
2023-10-31T19:14:42.596Z,15.70
2023-10-31T19:16:01.142Z,13.20
2023-10-31T19:18:49.279Z,15.70
2023-10-31T19:20:06.425Z,13.20
2023-10-31T19:22:52.680Z,15.70
2023-10-31T19:24:10.638Z,13.30
2023-10-31T19:26:56.084Z,15.60
2023-10-31T19:28:14.816Z,13.40
2023-10-31T19:31:00.018Z,15.60
2023-10-31T19:32:18.857Z,13.50
2023-10-31T19:35:04.409Z,15.60
2023-10-31T19:36:23.746Z,13.40
2023-10-31T19:39:07.953Z,15.40
2023-10-31T19:40:29.146Z,13.20
2023-10-31T19:43:12.786Z,15.30
2023-10-31T19:44:33.267Z,13.00
2023-10-31T19:47:17.210Z,15.30
2023-10-31T19:48:37.343Z,12.70
2023-10-31T19:51:21.701Z,15.20
2023-10-31T19:52:44.620Z,12.50
2023-10-31T19:55:25.654Z,15.20
2023-10-31T19:56:51.533Z,12.30
2023-10-31T19:59:29.316Z,15.10
2023-10-31T20:00:56.177Z,12.10
2023-10-31T20:03:33.272Z,15.00
2023-10-31T20:05:01.865Z,11.90
2023-10-31T20:07:36.847Z,14.80
2023-10-31T20:09:08.403Z,11.80
2023-10-31T20:11:40.422Z,14.70
2023-10-31T20:13:12.902Z,11.60
2023-10-31T20:15:44.142Z,14.70
2023-10-31T20:17:16.833Z,11.50
2023-10-31T20:19:48.466Z,14.60
2023-10-31T20:21:22.603Z,11.40
2023-10-31T20:23:52.070Z,14.50
2023-10-31T20:25:27.178Z,11.40
2023-10-31T20:27:55.758Z,14.40
2023-10-31T20:29:31.210Z,11.40
2023-10-31T20:31:59.271Z,14.40
2023-10-31T20:33:35.711Z,11.40
2023-10-31T20:36:02.924Z,14.30
2023-10-31T20:37:39.810Z,11.50
2023-10-31T20:40:09.268Z,14.20
2023-10-31T20:41:43.970Z,11.50
2023-10-31T20:44:16.211Z,14.20
2023-10-31T20:45:47.989Z,11.50
2023-10-31T20:48:19.798Z,14.10
2023-10-31T20:49:56.172Z,11.40
2023-10-31T20:52:24.148Z,14.00
2023-10-31T20:54:00.405Z,11.50
2023-10-31T20:56:29.093Z,14.00
2023-10-31T20:58:06.547Z,11.50
2023-10-31T21:00:33.173Z,14.00
2023-10-31T21:02:10.710Z,11.40
2023-10-31T21:04:37.885Z,14.00
2023-10-31T21:06:15.380Z,11.20
2023-10-31T21:08:41.582Z,13.90
2023-10-31T21:10:19.879Z,11.10
2023-10-31T21:12:46.737Z,13.90
2023-10-31T21:14:24.223Z,11.10
2023-10-31T21:16:50.267Z,13.90
2023-10-31T21:18:28.543Z,11.00
2023-10-31T21:20:53.920Z,13.80
2023-10-31T21:22:35.949Z,11.00
2023-10-31T21:24:59.803Z,13.60
2023-10-31T21:26:42.538Z,11.00
2023-10-31T21:29:05.867Z,13.40
2023-10-31T21:30:48.199Z,11.00
2023-10-31T21:33:09.575Z,13.30
2023-10-31T21:34:53.559Z,10.90
2023-10-31T21:37:13.165Z,13.20
2023-10-31T21:38:57.878Z,10.80
2023-10-31T21:41:17.243Z,13.00
2023-10-31T21:43:01.889Z,10.70
2023-10-31T21:45:20.982Z,12.90
2023-10-31T21:47:06.230Z,10.60
2023-10-31T21:49:28.171Z,12.80
2023-10-31T21:51:10.222Z,10.50
2023-10-31T21:53:31.721Z,12.70
2023-10-31T21:55:17.498Z,10.50
2023-10-31T21:57:35.376Z,12.60
2023-10-31T21:59:21.519Z,10.40
2023-10-31T22:01:38.916Z,12.50
2023-10-31T22:03:25.574Z,10.40
2023-10-31T22:05:42.636Z,12.30
2023-10-31T22:07:30.013Z,10.20
2023-10-31T22:09:46.098Z,12.20
2023-10-31T22:11:34.458Z,10.20
2023-10-31T22:13:49.736Z,12.20
2023-10-31T22:15:38.995Z,10.20
2023-10-31T22:17:53.252Z,12.10
2023-10-31T22:19:43.143Z,10.20
2023-10-31T22:21:56.848Z,12.00
2023-10-31T22:23:47.974Z,10.20
2023-10-31T22:26:00.578Z,11.90
2023-10-31T22:27:53.619Z,10.10
2023-10-31T22:30:07.315Z,11.80
2023-10-31T22:32:00.040Z,10.00
2023-10-31T22:34:12.121Z,11.80
2023-10-31T22:36:04.109Z,10.10
2023-10-31T22:38:15.742Z,11.90
2023-10-31T22:40:09.182Z,10.10
2023-10-31T22:42:19.385Z,12.10
2023-10-31T22:44:13.811Z,10.00
2023-10-31T22:46:23.180Z,12.20
2023-10-31T22:48:17.904Z,9.90
2023-10-31T22:50:26.740Z,12.20
2023-10-31T22:52:23.265Z,9.80
2023-10-31T22:54:30.590Z,12.30
2023-10-31T22:56:27.305Z,9.70
2023-10-31T22:58:34.049Z,12.40
2023-10-31T23:00:34.953Z,9.80
2023-10-31T23:02:37.701Z,12.50
2023-10-31T23:04:39.907Z,9.70
2023-10-31T23:06:41.607Z,12.50
2023-10-31T23:08:43.992Z,9.60
2023-10-31T23:10:45.203Z,12.50
2023-10-31T23:12:52.383Z,9.50
2023-10-31T23:14:49.768Z,12.50
2023-10-31T23:16:57.100Z,9.40
2023-10-31T23:18:53.289Z,12.50
2023-10-31T23:21:02.223Z,9.30
2023-10-31T23:22:56.766Z,12.50
2023-10-31T23:25:09.572Z,9.30
2023-10-31T23:27:00.310Z,12.40
2023-10-31T23:29:15.879Z,9.30
2023-10-31T23:31:04.155Z,12.30
2023-10-31T23:33:20.094Z,9.20
2023-10-31T23:35:08.229Z,12.20
2023-10-31T23:37:29.491Z,9.30
2023-10-31T23:39:11.702Z,12.20
2023-10-31T23:41:36.191Z,9.40
2023-10-31T23:43:15.484Z,12.20
2023-10-31T23:45:40.393Z,9.30
2023-10-31T23:47:19.123Z,12.20
2023-10-31T23:49:47.314Z,9.30
2023-10-31T23:51:25.115Z,12.20
2023-10-31T23:53:51.923Z,9.30
2023-10-31T23:55:28.914Z,12.20
2023-10-31T23:57:57.202Z,9.40
2023-10-31T23:59:32.512Z,12.20
